sensor_id;sensor_type;location;lat;lon;timestamp;P1;durP1;ratioP1;P2;durP2;ratioP2
33094;SDS011;19459;53.044;8.910;2022-11-20T00:01:12;22.80;;;14.18;;
33094;SDS011;19459;53.044;8.910;2022-11-20T00:03:42;29.88;;;15.32;;
33094;SDS011;19459;53.044;8.910;2022-11-20T00:06:09;27.23;;;14.80;;
33094;SDS011;19459;53.044;8.910;2022-11-20T00:08:38;25.52;;;15.45;;
33094;SDS011;19459;53.044;8.910;2022-11-20T00:11:05;25.92;;;15.05;;
33094;SDS011;19459;53.044;8.910;2022-11-20T00:13:36;27.45;;;14.65;;
33094;SDS011;19459;53.044;8.910;2022-11-20T00:16:03;29.92;;;15.30;;
33094;SDS011;19459;53.044;8.910;2022-11-20T00:18:32;30.13;;;17.42;;
33094;SDS011;19459;53.044;8.910;2022-11-20T00:21:06;24.05;;;14.48;;
33094;SDS011;19459;53.044;8.910;2022-11-20T00:23:36;27.77;;;15.07;;
33094;SDS011;19459;53.044;8.910;2022-11-20T00:26:05;31.38;;;15.35;;
33094;SDS011;19459;53.044;8.910;2022-11-20T00:28:34;26.15;;;15.65;;
33094;SDS011;19459;53.044;8.910;2022-11-20T00:31:03;35.90;;;16.58;;
33094;SDS011;19459;53.044;8.910;2022-11-20T00:33:32;23.98;;;14.35;;
33094;SDS011;19459;53.044;8.910;2022-11-20T00:36:06;34.40;;;16.50;;
33094;SDS011;19459;53.044;8.910;2022-11-20T00:38:34;31.08;;;15.18;;
33094;SDS011;19459;53.044;8.910;2022-11-20T00:41:02;28.92;;;16.25;;
33094;SDS011;19459;53.044;8.910;2022-11-20T00:43:30;29.23;;;15.35;;
33094;SDS011;19459;53.044;8.910;2022-11-20T00:46:16;24.38;;;13.43;;
33094;SDS011;19459;53.044;8.910;2022-11-20T00:48:43;27.38;;;15.88;;
33094;SDS011;19459;53.044;8.910;2022-11-20T00:51:10;28.80;;;15.52;;
33094;SDS011;19459;53.044;8.910;2022-11-20T00:53:38;27.60;;;15.20;;
33094;SDS011;19459;53.044;8.910;2022-11-20T00:56:09;31.13;;;16.38;;
33094;SDS011;19459;53.044;8.910;2022-11-20T00:58:38;29.30;;;17.30;;
33094;SDS011;19459;53.044;8.910;2022-11-20T01:01:25;32.38;;;16.30;;
33094;SDS011;19459;53.044;8.910;2022-11-20T01:03:54;30.95;;;16.98;;
33094;SDS011;19459;53.044;8.910;2022-11-20T01:06:30;29.23;;;15.63;;
33094;SDS011;19459;53.044;8.910;2022-11-20T01:09:03;28.77;;;15.50;;
33094;SDS011;19459;53.044;8.910;2022-11-20T01:11:39;29.45;;;16.10;;
33094;SDS011;19459;53.044;8.910;2022-11-20T01:14:09;24.52;;;16.33;;
33094;SDS011;19459;53.044;8.910;2022-11-20T01:16:43;30.42;;;16.67;;
33094;SDS011;19459;53.044;8.910;2022-11-20T01:19:20;27.40;;;16.33;;
33094;SDS011;19459;53.044;8.910;2022-11-20T01:21:48;30.30;;;17.45;;
33094;SDS011;19459;53.044;8.910;2022-11-20T01:24:18;26.75;;;17.70;;
33094;SDS011;19459;53.044;8.910;2022-11-20T01:26:47;29.55;;;17.65;;
33094;SDS011;19459;53.044;8.910;2022-11-20T01:29:16;33.72;;;17.65;;
33094;SDS011;19459;53.044;8.910;2022-11-20T01:31:45;31.92;;;17.60;;
33094;SDS011;19459;53.044;8.910;2022-11-20T01:34:12;27.70;;;17.20;;
33094;SDS011;19459;53.044;8.910;2022-11-20T01:36:41;26.25;;;16.45;;
33094;SDS011;19459;53.044;8.910;2022-11-20T01:39:12;30.38;;;17.98;;
33094;SDS011;19459;53.044;8.910;2022-11-20T01:41:44;34.83;;;17.15;;
33094;SDS011;19459;53.044;8.910;2022-11-20T01:50:14;32.10;;;19.00;;
33094;SDS011;19459;53.044;8.910;2022-11-20T01:52:49;30.58;;;17.67;;
33094;SDS011;19459;53.044;8.910;2022-11-20T01:55:25;33.58;;;19.67;;
33094;SDS011;19459;53.044;8.910;2022-11-20T01:57:55;39.47;;;18.58;;
33094;SDS011;19459;53.044;8.910;2022-11-20T02:00:22;33.17;;;16.95;;
33094;SDS011;19459;53.044;8.910;2022-11-20T02:02:50;35.03;;;18.45;;
33094;SDS011;19459;53.044;8.910;2022-11-20T02:08:08;37.47;;;18.88;;
33094;SDS011;19459;53.044;8.910;2022-11-20T02:10:34;37.33;;;19.95;;
33094;SDS011;19459;53.044;8.910;2022-11-20T02:13:00;30.15;;;18.02;;
33094;SDS011;19459;53.044;8.910;2022-11-20T02:15:45;33.75;;;19.35;;
33094;SDS011;19459;53.044;8.910;2022-11-20T02:18:11;39.35;;;19.80;;
33094;SDS011;19459;53.044;8.910;2022-11-20T02:20:45;31.90;;;18.42;;
33094;SDS011;19459;53.044;8.910;2022-11-20T02:23:25;32.10;;;18.52;;
33094;SDS011;19459;53.044;8.910;2022-11-20T02:26:10;33.60;;;18.92;;
33094;SDS011;19459;53.044;8.910;2022-11-20T02:28:38;36.00;;;18.42;;
33094;SDS011;19459;53.044;8.910;2022-11-20T02:31:04;34.92;;;18.85;;
33094;SDS011;19459;53.044;8.910;2022-11-20T02:33:30;35.50;;;19.77;;
33094;SDS011;19459;53.044;8.910;2022-11-20T02:35:56;38.85;;;19.48;;
33094;SDS011;19459;53.044;8.910;2022-11-20T02:38:21;42.78;;;22.42;;
33094;SDS011;19459;53.044;8.910;2022-11-20T02:40:48;36.38;;;21.20;;
33094;SDS011;19459;53.044;8.910;2022-11-20T02:43:15;39.65;;;21.20;;
33094;SDS011;19459;53.044;8.910;2022-11-20T02:45:41;51.58;;;22.65;;
33094;SDS011;19459;53.044;8.910;2022-11-20T02:48:07;39.92;;;20.42;;
33094;SDS011;19459;53.044;8.910;2022-11-20T02:50:35;39.42;;;20.83;;
33094;SDS011;19459;53.044;8.910;2022-11-20T02:53:03;40.05;;;20.80;;
33094;SDS011;19459;53.044;8.910;2022-11-20T02:55:29;35.53;;;18.20;;
33094;SDS011;19459;53.044;8.910;2022-11-20T02:57:55;38.10;;;20.05;;
33094;SDS011;19459;53.044;8.910;2022-11-20T03:00:21;34.55;;;18.63;;
33094;SDS011;19459;53.044;8.910;2022-11-20T03:02:47;33.83;;;18.40;;
33094;SDS011;19459;53.044;8.910;2022-11-20T03:05:13;36.90;;;18.35;;
33094;SDS011;19459;53.044;8.910;2022-11-20T03:07:38;32.55;;;18.73;;
33094;SDS011;19459;53.044;8.910;2022-11-20T03:10:04;32.72;;;17.85;;
33094;SDS011;19459;53.044;8.910;2022-11-20T03:12:31;33.30;;;18.58;;
33094;SDS011;19459;53.044;8.910;2022-11-20T03:14:56;33.65;;;17.40;;
33094;SDS011;19459;53.044;8.910;2022-11-20T03:17:22;35.55;;;18.98;;
33094;SDS011;19459;53.044;8.910;2022-11-20T03:19:49;30.08;;;16.20;;
33094;SDS011;19459;53.044;8.910;2022-11-20T03:22:15;28.33;;;17.27;;
33094;SDS011;19459;53.044;8.910;2022-11-20T03:24:41;35.33;;;18.52;;
33094;SDS011;19459;53.044;8.910;2022-11-20T03:27:06;31.67;;;17.80;;
33094;SDS011;19459;53.044;8.910;2022-11-20T03:29:32;30.95;;;16.73;;
33094;SDS011;19459;53.044;8.910;2022-11-20T03:32:00;33.42;;;17.02;;
33094;SDS011;19459;53.044;8.910;2022-11-20T03:34:25;34.25;;;16.83;;
33094;SDS011;19459;53.044;8.910;2022-11-20T03:36:51;32.17;;;17.00;;
33094;SDS011;19459;53.044;8.910;2022-11-20T03:39:17;30.35;;;15.45;;
33094;SDS011;19459;53.044;8.910;2022-11-20T03:41:43;32.65;;;15.93;;
33094;SDS011;19459;53.044;8.910;2022-11-20T03:44:10;28.40;;;16.00;;
33094;SDS011;19459;53.044;8.910;2022-11-20T03:46:37;32.90;;;17.50;;
33094;SDS011;19459;53.044;8.910;2022-11-20T03:49:03;28.48;;;16.77;;
33094;SDS011;19459;53.044;8.910;2022-11-20T03:51:30;30.55;;;15.02;;
33094;SDS011;19459;53.044;8.910;2022-11-20T03:54:00;33.33;;;16.25;;
33094;SDS011;19459;53.044;8.910;2022-11-20T03:56:33;30.05;;;16.25;;
33094;SDS011;19459;53.044;8.910;2022-11-20T03:59:01;29.45;;;15.25;;
33094;SDS011;19459;53.044;8.910;2022-11-20T04:01:28;29.25;;;15.05;;
33094;SDS011;19459;53.044;8.910;2022-11-20T04:04:00;34.80;;;16.40;;
33094;SDS011;19459;53.044;8.910;2022-11-20T04:06:27;30.95;;;16.63;;
33094;SDS011;19459;53.044;8.910;2022-11-20T04:09:02;32.83;;;16.08;;
33094;SDS011;19459;53.044;8.910;2022-11-20T04:11:32;31.95;;;15.18;;
33094;SDS011;19459;53.044;8.910;2022-11-20T04:14:02;31.80;;;17.65;;
33094;SDS011;19459;53.044;8.910;2022-11-20T04:16:31;28.73;;;17.17;;
33094;SDS011;19459;53.044;8.910;2022-11-20T04:19:00;33.45;;;17.35;;
33094;SDS011;19459;53.044;8.910;2022-11-20T04:21:29;28.45;;;15.95;;
33094;SDS011;19459;53.044;8.910;2022-11-20T04:23:56;30.77;;;16.38;;
33094;SDS011;19459;53.044;8.910;2022-11-20T04:26:23;30.90;;;16.08;;
33094;SDS011;19459;53.044;8.910;2022-11-20T04:28:52;31.48;;;15.98;;
33094;SDS011;19459;53.044;8.910;2022-11-20T04:31:22;27.60;;;15.10;;
33094;SDS011;19459;53.044;8.910;2022-11-20T04:33:50;34.55;;;15.65;;
33094;SDS011;19459;53.044;8.910;2022-11-20T04:36:21;30.48;;;16.17;;
33094;SDS011;19459;53.044;8.910;2022-11-20T04:38:52;28.45;;;16.25;;
33094;SDS011;19459;53.044;8.910;2022-11-20T04:41:27;25.92;;;14.60;;
33094;SDS011;19459;53.044;8.910;2022-11-20T04:43:59;26.30;;;15.93;;
33094;SDS011;19459;53.044;8.910;2022-11-20T04:46:28;30.13;;;15.52;;
33094;SDS011;19459;53.044;8.910;2022-11-20T04:48:56;30.88;;;14.57;;
33094;SDS011;19459;53.044;8.910;2022-11-20T04:51:22;30.00;;;16.10;;
33094;SDS011;19459;53.044;8.910;2022-11-20T04:53:48;26.95;;;14.75;;
33094;SDS011;19459;53.044;8.910;2022-11-20T04:56:14;29.67;;;15.82;;
33094;SDS011;19459;53.044;8.910;2022-11-20T04:58:41;33.92;;;18.10;;
33094;SDS011;19459;53.044;8.910;2022-11-20T05:01:12;29.63;;;15.13;;
33094;SDS011;19459;53.044;8.910;2022-11-20T05:03:43;25.90;;;14.60;;
33094;SDS011;19459;53.044;8.910;2022-11-20T05:06:10;34.30;;;16.83;;
33094;SDS011;19459;53.044;8.910;2022-11-20T05:08:42;26.98;;;15.02;;
33094;SDS011;19459;53.044;8.910;2022-11-20T05:11:09;28.67;;;15.32;;
33094;SDS011;19459;53.044;8.910;2022-11-20T05:13:44;27.67;;;14.23;;
33094;SDS011;19459;53.044;8.910;2022-11-20T05:16:11;21.40;;;12.77;;
33094;SDS011;19459;53.044;8.910;2022-11-20T05:18:39;23.85;;;13.65;;
33094;SDS011;19459;53.044;8.910;2022-11-20T05:21:08;26.13;;;13.32;;
33094;SDS011;19459;53.044;8.910;2022-11-20T05:23:36;26.10;;;13.65;;
33094;SDS011;19459;53.044;8.910;2022-11-20T05:26:03;25.50;;;13.27;;
33094;SDS011;19459;53.044;8.910;2022-11-20T05:28:30;25.45;;;13.75;;
33094;SDS011;19459;53.044;8.910;2022-11-20T05:31:03;28.98;;;13.70;;
33094;SDS011;19459;53.044;8.910;2022-11-20T05:33:39;26.27;;;13.40;;
33094;SDS011;19459;53.044;8.910;2022-11-20T05:36:06;28.40;;;14.32;;
33094;SDS011;19459;53.044;8.910;2022-11-20T05:38:32;25.02;;;12.63;;
33094;SDS011;19459;53.044;8.910;2022-11-20T05:43:39;21.77;;;12.48;;
33094;SDS011;19459;53.044;8.910;2022-11-20T05:46:08;24.73;;;13.68;;
33094;SDS011;19459;53.044;8.910;2022-11-20T05:48:37;23.27;;;12.75;;
33094;SDS011;19459;53.044;8.910;2022-11-20T05:51:05;21.58;;;12.30;;
33094;SDS011;19459;53.044;8.910;2022-11-20T05:53:33;22.65;;;12.60;;
33094;SDS011;19459;53.044;8.910;2022-11-20T05:56:02;21.85;;;12.15;;
33094;SDS011;19459;53.044;8.910;2022-11-20T05:58:35;24.55;;;12.50;;
33094;SDS011;19459;53.044;8.910;2022-11-20T06:01:05;22.35;;;12.07;;
33094;SDS011;19459;53.044;8.910;2022-11-20T06:03:37;21.48;;;11.40;;
33094;SDS011;19459;53.044;8.910;2022-11-20T06:06:05;22.55;;;12.45;;
33094;SDS011;19459;53.044;8.910;2022-11-20T06:08:32;18.75;;;11.98;;
33094;SDS011;19459;53.044;8.910;2022-11-20T06:10:58;28.50;;;12.40;;
33094;SDS011;19459;53.044;8.910;2022-11-20T06:13:28;19.25;;;10.93;;
33094;SDS011;19459;53.044;8.910;2022-11-20T06:15:54;19.90;;;11.07;;
33094;SDS011;19459;53.044;8.910;2022-11-20T06:18:20;22.98;;;12.05;;
33094;SDS011;19459;53.044;8.910;2022-11-20T06:20:46;20.00;;;12.15;;
33094;SDS011;19459;53.044;8.910;2022-11-20T06:23:12;18.27;;;11.35;;
33094;SDS011;19459;53.044;8.910;2022-11-20T06:25:38;16.38;;;10.07;;
33094;SDS011;19459;53.044;8.910;2022-11-20T06:28:05;19.45;;;10.43;;
33094;SDS011;19459;53.044;8.910;2022-11-20T06:30:32;21.23;;;11.02;;
33094;SDS011;19459;53.044;8.910;2022-11-20T06:32:58;22.55;;;11.52;;
33094;SDS011;19459;53.044;8.910;2022-11-20T06:35:24;23.58;;;12.43;;
33094;SDS011;19459;53.044;8.910;2022-11-20T06:37:49;21.15;;;11.73;;
33094;SDS011;19459;53.044;8.910;2022-11-20T06:40:15;21.77;;;11.65;;
33094;SDS011;19459;53.044;8.910;2022-11-20T06:42:41;21.23;;;11.00;;
33094;SDS011;19459;53.044;8.910;2022-11-20T06:45:07;22.63;;;10.02;;
33094;SDS011;19459;53.044;8.910;2022-11-20T06:47:34;21.65;;;11.77;;
33094;SDS011;19459;53.044;8.910;2022-11-20T06:49:59;19.55;;;11.45;;
33094;SDS011;19459;53.044;8.910;2022-11-20T06:52:25;18.17;;;11.27;;
33094;SDS011;19459;53.044;8.910;2022-11-20T06:54:51;20.23;;;11.50;;
33094;SDS011;19459;53.044;8.910;2022-11-20T06:57:17;20.45;;;11.48;;
33094;SDS011;19459;53.044;8.910;2022-11-20T06:59:42;20.27;;;11.07;;
33094;SDS011;19459;53.044;8.910;2022-11-20T07:02:09;24.65;;;11.95;;
33094;SDS011;19459;53.044;8.910;2022-11-20T07:04:37;19.85;;;12.13;;
33094;SDS011;19459;53.044;8.910;2022-11-20T07:07:03;24.10;;;11.88;;
33094;SDS011;19459;53.044;8.910;2022-11-20T07:09:30;24.52;;;11.60;;
33094;SDS011;19459;53.044;8.910;2022-11-20T07:11:57;22.27;;;12.98;;
33094;SDS011;19459;53.044;8.910;2022-11-20T07:14:23;28.42;;;13.85;;
33094;SDS011;19459;53.044;8.910;2022-11-20T07:16:49;27.75;;;13.38;;
33094;SDS011;19459;53.044;8.910;2022-11-20T07:19:14;33.70;;;14.00;;
33094;SDS011;19459;53.044;8.910;2022-11-20T07:21:40;27.25;;;13.93;;
33094;SDS011;19459;53.044;8.910;2022-11-20T07:24:06;23.40;;;12.27;;
33094;SDS011;19459;53.044;8.910;2022-11-20T07:26:32;23.02;;;12.35;;
33094;SDS011;19459;53.044;8.910;2022-11-20T07:28:57;24.75;;;15.27;;
33094;SDS011;19459;53.044;8.910;2022-11-20T07:31:23;21.55;;;12.40;;
33094;SDS011;19459;53.044;8.910;2022-11-20T07:33:49;19.75;;;12.10;;
33094;SDS011;19459;53.044;8.910;2022-11-20T07:36:15;19.17;;;11.93;;
33094;SDS011;19459;53.044;8.910;2022-11-20T07:38:40;19.40;;;11.65;;
33094;SDS011;19459;53.044;8.910;2022-11-20T07:41:06;20.55;;;12.15;;
33094;SDS011;19459;53.044;8.910;2022-11-20T07:43:32;24.15;;;11.85;;
33094;SDS011;19459;53.044;8.910;2022-11-20T07:45:58;20.05;;;11.40;;
33094;SDS011;19459;53.044;8.910;2022-11-20T07:48:24;19.70;;;10.88;;
33094;SDS011;19459;53.044;8.910;2022-11-20T07:50:54;20.83;;;11.57;;
33094;SDS011;19459;53.044;8.910;2022-11-20T07:53:21;19.00;;;10.73;;
33094;SDS011;19459;53.044;8.910;2022-11-20T07:55:48;18.48;;;11.93;;
33094;SDS011;19459;53.044;8.910;2022-11-20T07:58:14;23.00;;;11.93;;
33094;SDS011;19459;53.044;8.910;2022-11-20T08:00:40;20.13;;;11.50;;
33094;SDS011;19459;53.044;8.910;2022-11-20T08:03:06;23.10;;;11.60;;
33094;SDS011;19459;53.044;8.910;2022-11-20T08:05:32;18.88;;;11.05;;
33094;SDS011;19459;53.044;8.910;2022-11-20T08:07:58;26.73;;;12.15;;
33094;SDS011;19459;53.044;8.910;2022-11-20T08:10:24;20.95;;;12.07;;
33094;SDS011;19459;53.044;8.910;2022-11-20T08:12:51;19.83;;;11.88;;
33094;SDS011;19459;53.044;8.910;2022-11-20T08:15:36;20.80;;;12.13;;
33094;SDS011;19459;53.044;8.910;2022-11-20T08:18:11;19.52;;;11.52;;
33094;SDS011;19459;53.044;8.910;2022-11-20T08:20:37;20.30;;;13.00;;
33094;SDS011;19459;53.044;8.910;2022-11-20T08:23:04;21.52;;;12.00;;
33094;SDS011;19459;53.044;8.910;2022-11-20T08:25:33;25.92;;;13.98;;
33094;SDS011;19459;53.044;8.910;2022-11-20T08:28:01;18.25;;;10.43;;
33094;SDS011;19459;53.044;8.910;2022-11-20T08:30:29;25.20;;;12.65;;
33094;SDS011;19459;53.044;8.910;2022-11-20T08:32:59;21.63;;;11.98;;
33094;SDS011;19459;53.044;8.910;2022-11-20T08:35:35;22.50;;;12.07;;
33094;SDS011;19459;53.044;8.910;2022-11-20T08:38:02;22.08;;;11.48;;
33094;SDS011;19459;53.044;8.910;2022-11-20T08:40:30;25.33;;;12.02;;
33094;SDS011;19459;53.044;8.910;2022-11-20T08:42:56;21.00;;;11.68;;
33094;SDS011;19459;53.044;8.910;2022-11-20T08:45:22;19.20;;;11.70;;
33094;SDS011;19459;53.044;8.910;2022-11-20T08:47:48;20.48;;;12.05;;
33094;SDS011;19459;53.044;8.910;2022-11-20T08:50:15;20.98;;;12.80;;
33094;SDS011;19459;53.044;8.910;2022-11-20T08:52:42;20.92;;;12.98;;
33094;SDS011;19459;53.044;8.910;2022-11-20T08:55:08;23.15;;;13.27;;
33094;SDS011;19459;53.044;8.910;2022-11-20T08:57:35;22.52;;;13.10;;
33094;SDS011;19459;53.044;8.910;2022-11-20T09:00:02;21.67;;;12.55;;
33094;SDS011;19459;53.044;8.910;2022-11-20T09:02:30;19.50;;;11.95;;
33094;SDS011;19459;53.044;8.910;2022-11-20T09:04:57;22.30;;;11.98;;
33094;SDS011;19459;53.044;8.910;2022-11-20T09:07:23;22.17;;;12.45;;
33094;SDS011;19459;53.044;8.910;2022-11-20T09:09:49;19.77;;;11.50;;
33094;SDS011;19459;53.044;8.910;2022-11-20T09:12:14;16.45;;;10.52;;
33094;SDS011;19459;53.044;8.910;2022-11-20T09:14:40;21.73;;;12.80;;
33094;SDS011;19459;53.044;8.910;2022-11-20T09:17:06;18.17;;;11.38;;
33094;SDS011;19459;53.044;8.910;2022-11-20T09:19:32;23.95;;;12.68;;
33094;SDS011;19459;53.044;8.910;2022-11-20T09:21:58;22.33;;;13.02;;
33094;SDS011;19459;53.044;8.910;2022-11-20T09:24:25;23.00;;;13.85;;
33094;SDS011;19459;53.044;8.910;2022-11-20T09:26:51;20.40;;;12.25;;
33094;SDS011;19459;53.044;8.910;2022-11-20T09:29:17;17.88;;;10.90;;
33094;SDS011;19459;53.044;8.910;2022-11-20T09:31:43;20.60;;;12.38;;
33094;SDS011;19459;53.044;8.910;2022-11-20T09:34:09;19.58;;;11.50;;
33094;SDS011;19459;53.044;8.910;2022-11-20T09:36:36;26.13;;;12.90;;
33094;SDS011;19459;53.044;8.910;2022-11-20T09:39:02;20.00;;;12.23;;
33094;SDS011;19459;53.044;8.910;2022-11-20T09:41:42;20.50;;;12.65;;
33094;SDS011;19459;53.044;8.910;2022-11-20T09:50:32;23.05;;;12.00;;
33094;SDS011;19459;53.044;8.910;2022-11-20T09:53:16;22.42;;;13.50;;
33094;SDS011;19459;53.044;8.910;2022-11-20T09:56:01;24.58;;;11.93;;
33094;SDS011;19459;53.044;8.910;2022-11-20T09:58:40;26.90;;;14.30;;
33094;SDS011;19459;53.044;8.910;2022-11-20T10:01:16;20.15;;;11.98;;
33094;SDS011;19459;53.044;8.910;2022-11-20T10:06:31;19.33;;;11.07;;
33094;SDS011;19459;53.044;8.910;2022-11-20T10:11:46;22.30;;;13.02;;
33094;SDS011;19459;53.044;8.910;2022-11-20T10:17:17;29.48;;;16.75;;
33094;SDS011;19459;53.044;8.910;2022-11-20T10:25:20;24.65;;;15.50;;
33094;SDS011;19459;53.044;8.910;2022-11-20T10:30:25;25.98;;;14.88;;
33094;SDS011;19459;53.044;8.910;2022-11-20T10:32:53;23.98;;;14.27;;
33094;SDS011;19459;53.044;8.910;2022-11-20T10:35:26;25.63;;;15.17;;
33094;SDS011;19459;53.044;8.910;2022-11-20T10:38:00;25.35;;;15.40;;
33094;SDS011;19459;53.044;8.910;2022-11-20T10:48:35;26.88;;;15.70;;
33094;SDS011;19459;53.044;8.910;2022-11-20T10:54:47;28.98;;;17.27;;
33094;SDS011;19459;53.044;8.910;2022-11-20T10:56:48;26.75;;;15.60;;
33094;SDS011;19459;53.044;8.910;2022-11-20T11:01:55;27.20;;;16.00;;
33094;SDS011;19459;53.044;8.910;2022-11-20T11:07:30;36.15;;;17.75;;
33094;SDS011;19459;53.044;8.910;2022-11-20T11:10:05;31.13;;;17.77;;
33094;SDS011;19459;53.044;8.910;2022-11-20T11:12:58;33.20;;;18.45;;
33094;SDS011;19459;53.044;8.910;2022-11-20T11:15:28;28.30;;;17.73;;
33094;SDS011;19459;53.044;8.910;2022-11-20T11:17:55;23.55;;;14.88;;
33094;SDS011;19459;53.044;8.910;2022-11-20T11:20:22;27.38;;;15.82;;
33094;SDS011;19459;53.044;8.910;2022-11-20T11:28:20;32.33;;;19.20;;
33094;SDS011;19459;53.044;8.910;2022-11-20T11:30:47;32.67;;;18.25;;
33094;SDS011;19459;53.044;8.910;2022-11-20T11:33:23;32.45;;;17.15;;
33094;SDS011;19459;53.044;8.910;2022-11-20T11:35:52;31.70;;;16.98;;
33094;SDS011;19459;53.044;8.910;2022-11-20T11:38:40;31.27;;;17.10;;
33094;SDS011;19459;53.044;8.910;2022-11-20T11:41:17;37.67;;;20.60;;
33094;SDS011;19459;53.044;8.910;2022-11-20T11:43:52;29.40;;;16.05;;
33094;SDS011;19459;53.044;8.910;2022-11-20T11:46:39;30.30;;;15.38;;
33094;SDS011;19459;53.044;8.910;2022-11-20T11:49:16;31.75;;;15.30;;
33094;SDS011;19459;53.044;8.910;2022-11-20T11:52:03;22.83;;;13.65;;
33094;SDS011;19459;53.044;8.910;2022-11-20T11:54:42;25.58;;;14.98;;
33094;SDS011;19459;53.044;8.910;2022-11-20T11:57:46;30.08;;;16.15;;
33094;SDS011;19459;53.044;8.910;2022-11-20T12:00:41;23.85;;;14.60;;
33094;SDS011;19459;53.044;8.910;2022-11-20T12:03:59;27.70;;;14.65;;
33094;SDS011;19459;53.044;8.910;2022-11-20T12:06:39;23.75;;;14.10;;
33094;SDS011;19459;53.044;8.910;2022-11-20T12:09:11;21.80;;;13.95;;
33094;SDS011;19459;53.044;8.910;2022-11-20T12:11:49;25.50;;;13.82;;
33094;SDS011;19459;53.044;8.910;2022-11-20T12:14:38;24.27;;;13.38;;
33094;SDS011;19459;53.044;8.910;2022-11-20T12:17:09;27.27;;;12.30;;
33094;SDS011;19459;53.044;8.910;2022-11-20T12:19:37;25.50;;;12.55;;
33094;SDS011;19459;53.044;8.910;2022-11-20T12:25:04;23.40;;;13.70;;
33094;SDS011;19459;53.044;8.910;2022-11-20T12:30:52;28.02;;;14.40;;
33094;SDS011;19459;53.044;8.910;2022-11-20T12:36:47;22.27;;;14.15;;
33094;SDS011;19459;53.044;8.910;2022-11-20T12:39:50;27.92;;;14.35;;
33094;SDS011;19459;53.044;8.910;2022-11-20T13:00:56;20.70;;;12.25;;
33094;SDS011;19459;53.044;8.910;2022-11-20T13:03:43;21.10;;;11.85;;
33094;SDS011;19459;53.044;8.910;2022-11-20T13:06:17;14.68;;;10.02;;
33094;SDS011;19459;53.044;8.910;2022-11-20T13:09:02;21.48;;;12.10;;
33094;SDS011;19459;53.044;8.910;2022-11-20T13:11:37;17.40;;;11.32;;
33094;SDS011;19459;53.044;8.910;2022-11-20T13:14:17;19.05;;;11.75;;
33094;SDS011;19459;53.044;8.910;2022-11-20T13:19:31;18.15;;;11.40;;
33094;SDS011;19459;53.044;8.910;2022-11-20T13:21:58;22.25;;;11.95;;
33094;SDS011;19459;53.044;8.910;2022-11-20T13:24:25;19.73;;;11.75;;
33094;SDS011;19459;53.044;8.910;2022-11-20T13:29:40;21.02;;;11.75;;
33094;SDS011;19459;53.044;8.910;2022-11-20T13:32:19;19.67;;;11.18;;
33094;SDS011;19459;53.044;8.910;2022-11-20T13:34:53;16.90;;;10.45;;
33094;SDS011;19459;53.044;8.910;2022-11-20T13:37:29;20.33;;;11.70;;
33094;SDS011;19459;53.044;8.910;2022-11-20T13:42:44;19.70;;;11.35;;
33094;SDS011;19459;53.044;8.910;2022-11-20T13:45:24;25.00;;;11.80;;
33094;SDS011;19459;53.044;8.910;2022-11-20T13:47:53;17.63;;;11.00;;
33094;SDS011;19459;53.044;8.910;2022-11-20T13:50:38;20.13;;;12.02;;
33094;SDS011;19459;53.044;8.910;2022-11-20T13:55:59;21.25;;;11.98;;
33094;SDS011;19459;53.044;8.910;2022-11-20T13:58:40;19.98;;;12.05;;
33094;SDS011;19459;53.044;8.910;2022-11-20T14:01:32;24.42;;;14.32;;
33094;SDS011;19459;53.044;8.910;2022-11-20T14:03:59;24.40;;;15.57;;
33094;SDS011;19459;53.044;8.910;2022-11-20T14:06:43;26.65;;;14.05;;
33094;SDS011;19459;53.044;8.910;2022-11-20T14:09:27;22.60;;;13.73;;
33094;SDS011;19459;53.044;8.910;2022-11-20T14:11:55;25.95;;;14.52;;
33094;SDS011;19459;53.044;8.910;2022-11-20T14:14:30;26.98;;;13.90;;
33094;SDS011;19459;53.044;8.910;2022-11-20T14:17:08;24.08;;;14.73;;
33094;SDS011;19459;53.044;8.910;2022-11-20T14:19:44;23.55;;;13.80;;
33094;SDS011;19459;53.044;8.910;2022-11-20T14:22:19;27.65;;;16.17;;
33094;SDS011;19459;53.044;8.910;2022-11-20T14:25:01;21.83;;;12.98;;
33094;SDS011;19459;53.044;8.910;2022-11-20T14:27:42;22.00;;;12.82;;
33094;SDS011;19459;53.044;8.910;2022-11-20T14:30:17;23.35;;;13.15;;
33094;SDS011;19459;53.044;8.910;2022-11-20T14:32:47;21.45;;;13.75;;
33094;SDS011;19459;53.044;8.910;2022-11-20T14:35:47;26.63;;;14.93;;
33094;SDS011;19459;53.044;8.910;2022-11-20T14:38:15;27.95;;;14.40;;
33094;SDS011;19459;53.044;8.910;2022-11-20T14:40:44;32.75;;;20.73;;
33094;SDS011;19459;53.044;8.910;2022-11-20T14:46:08;26.52;;;16.50;;
33094;SDS011;19459;53.044;8.910;2022-11-20T14:48:38;25.30;;;14.48;;
33094;SDS011;19459;53.044;8.910;2022-11-20T14:51:10;29.98;;;14.82;;
33094;SDS011;19459;53.044;8.910;2022-11-20T14:59:24;24.20;;;14.10;;
33094;SDS011;19459;53.044;8.910;2022-11-20T15:01:55;23.50;;;13.52;;
33094;SDS011;19459;53.044;8.910;2022-11-20T15:06:53;24.70;;;14.23;;
33094;SDS011;19459;53.044;8.910;2022-11-20T15:09:21;31.65;;;23.38;;
33094;SDS011;19459;53.044;8.910;2022-11-20T15:12:02;30.10;;;19.58;;
33094;SDS011;19459;53.044;8.910;2022-11-20T15:14:29;32.28;;;20.45;;
33094;SDS011;19459;53.044;8.910;2022-11-20T15:16:57;27.85;;;16.58;;
33094;SDS011;19459;53.044;8.910;2022-11-20T15:19:25;32.45;;;17.58;;
33094;SDS011;19459;53.044;8.910;2022-11-20T15:21:52;28.05;;;16.00;;
33094;SDS011;19459;53.044;8.910;2022-11-20T15:24:18;28.23;;;17.50;;
33094;SDS011;19459;53.044;8.910;2022-11-20T15:26:44;26.80;;;16.42;;
33094;SDS011;19459;53.044;8.910;2022-11-20T15:29:11;24.20;;;14.63;;
33094;SDS011;19459;53.044;8.910;2022-11-20T15:31:43;24.50;;;14.75;;
33094;SDS011;19459;53.044;8.910;2022-11-20T15:34:16;23.52;;;14.70;;
33094;SDS011;19459;53.044;8.910;2022-11-20T15:36:44;28.13;;;16.60;;
33094;SDS011;19459;53.044;8.910;2022-11-20T15:39:09;29.77;;;17.55;;
33094;SDS011;19459;53.044;8.910;2022-11-20T15:41:36;23.80;;;15.60;;
33094;SDS011;19459;53.044;8.910;2022-11-20T15:44:03;27.00;;;15.88;;
33094;SDS011;19459;53.044;8.910;2022-11-20T15:46:35;26.83;;;15.93;;
33094;SDS011;19459;53.044;8.910;2022-11-20T15:49:05;28.55;;;16.40;;
33094;SDS011;19459;53.044;8.910;2022-11-20T15:51:35;25.83;;;15.55;;
33094;SDS011;19459;53.044;8.910;2022-11-20T15:54:09;26.13;;;16.40;;
33094;SDS011;19459;53.044;8.910;2022-11-20T15:56:37;25.65;;;16.55;;
33094;SDS011;19459;53.044;8.910;2022-11-20T15:59:03;27.55;;;17.90;;
33094;SDS011;19459;53.044;8.910;2022-11-20T16:01:30;24.80;;;15.82;;
33094;SDS011;19459;53.044;8.910;2022-11-20T16:03:55;28.73;;;17.02;;
33094;SDS011;19459;53.044;8.910;2022-11-20T16:06:21;28.95;;;17.50;;
33094;SDS011;19459;53.044;8.910;2022-11-20T16:08:47;29.73;;;17.08;;
33094;SDS011;19459;53.044;8.910;2022-11-20T16:11:13;31.70;;;19.55;;
33094;SDS011;19459;53.044;8.910;2022-11-20T16:13:41;37.13;;;23.55;;
33094;SDS011;19459;53.044;8.910;2022-11-20T16:16:35;38.60;;;22.67;;
33094;SDS011;19459;53.044;8.910;2022-11-20T16:19:02;42.60;;;23.15;;
33094;SDS011;19459;53.044;8.910;2022-11-20T16:21:28;37.47;;;22.33;;
33094;SDS011;19459;53.044;8.910;2022-11-20T16:23:58;36.08;;;21.50;;
33094;SDS011;19459;53.044;8.910;2022-11-20T16:26:25;33.10;;;19.48;;